Time;durP1;ratioP1;P1;durP2;ratioP2;P2;SDS_P1;SDS_P2;PMS_P1;PMS_P2;Temp;Humidity;BMP_temperature;BMP_pressure;BME280_temperature;BME280_humidity;BME280_pressure;Samples;Min_cycle;Max_cycle;Signal;HPM_P1;HPM_P2
2021/07/12 00:02:10;;;;;;;1.47;1.17;;;15.40;99.90;15.00;96835.00;;;;5107350;28;20234;-74
2021/07/12 00:04:59;;;;;;;1.83;1.30;;;15.40;99.90;14.90;96847.00;;;;5107809;28;20627;-74
2021/07/12 00:07:49;;;;;;;3.07;1.27;;;15.40;99.90;14.90;96845.00;;;;5107292;28;20207;-73
2021/07/12 00:10:39;;;;;;;3.03;1.33;;;15.40;99.90;14.90;96841.00;;;;5107578;28;20671;-73
2021/07/12 00:13:29;;;;;;;1.67;0.90;;;15.40;99.90;14.80;96839.00;;;;5108537;28;20612;-74
2021/07/12 00:16:18;;;;;;;1.97;1.30;;;15.30;99.90;14.90;96847.00;;;;5107670;28;20710;-73
2021/07/12 00:19:07;;;;;;;1.37;1.27;;;15.70;99.90;14.80;96841.00;;;;5107982;28;20215;-73
2021/07/12 00:21:56;;;;;;;1.33;0.90;;;15.30;99.90;14.90;96840.00;;;;5105976;28;20225;-73
2021/07/12 00:24:45;;;;;;;1.00;1.00;;;15.20;99.90;14.80;96843.00;;;;5089251;28;20663;-73
2021/07/12 00:27:36;;;;;;;1.63;1.33;;;15.20;99.90;14.70;96829.00;;;;5088346;28;20231;-73
2021/07/12 00:30:29;;;;;;;1.20;0.97;;;15.20;99.90;14.60;96830.00;;;;5087513;28;20208;-74
2021/07/12 00:33:18;;;;;;;1.43;1.10;;;15.20;99.90;14.70;96833.00;;;;5089105;28;20251;-74
2021/07/12 00:36:09;;;;;;;1.30;1.20;;;15.10;99.90;14.70;96827.00;;;;5096654;28;20202;-74
2021/07/12 00:38:58;;;;;;;1.00;0.90;;;15.10;99.90;14.60;96833.00;;;;5107400;28;20225;-73
2021/07/12 00:41:47;;;;;;;3.60;1.00;;;15.10;99.90;14.20;96835.00;;;;5106997;28;20214;-74
2021/07/12 00:44:37;;;;;;;1.77;1.50;;;15.00;99.90;14.20;96842.00;;;;5108047;28;20201;-74
2021/07/12 00:47:30;;;;;;;2.00;1.33;;;14.90;99.90;14.20;96840.00;;;;5105643;28;20198;-74
2021/07/12 00:50:20;;;;;;;2.10;1.13;;;14.80;99.90;14.30;96840.00;;;;5107183;28;20697;-73
2021/07/12 00:53:10;;;;;;;2.13;1.30;;;14.80;99.90;14.30;96836.00;;;;5106698;28;20280;-73
2021/07/12 00:55:59;;;;;;;1.47;1.37;;;14.70;99.90;14.40;96841.00;;;;5103783;28;20217;-73
2021/07/12 00:58:48;;;;;;;1.20;1.00;;;14.80;99.90;14.40;96830.00;;;;5107164;28;20222;-74
2021/07/12 01:01:37;;;;;;;2.03;1.17;;;14.80;99.90;14.40;96830.00;;;;5105944;28;20594;-73
2021/07/12 01:04:27;;;;;;;1.40;1.30;;;14.80;99.90;14.50;96829.00;;;;5107364;28;20250;-73
2021/07/12 01:07:16;;;;;;;1.73;1.63;;;14.80;99.90;14.30;96824.00;;;;5107086;28;20690;-73
2021/07/12 01:10:09;;;;;;;1.63;1.40;;;14.80;99.90;14.40;96828.00;;;;5103879;28;20468;-73
2021/07/12 01:13:21;;;;;;;3.03;1.33;;;14.80;99.90;14.40;96838.00;;;;5107185;28;20206;-73
2021/07/12 01:16:34;;;;;;;4.37;2.13;;;14.80;99.90;14.50;96834.00;;;;5106138;28;20578;-73
2021/07/12 01:20:14;;;;;;;1.90;1.13;;;14.80;99.90;14.40;96841.00;;;;5106350;28;20229;-73
2021/07/12 01:23:30;;;;;;;1.57;0.97;;;14.80;99.90;14.60;96836.00;;;;5102353;28;20220;-73
2021/07/12 01:27:29;;;;;;;1.40;1.30;;;14.90;99.90;14.60;96834.00;;;;5106704;28;20661;-73
2021/07/12 01:30:23;;;;;;;1.57;1.17;;;14.80;99.90;14.60;96826.00;;;;5041807;28;20212;-73
2021/07/12 01:33:19;;;;;;;2.40;1.57;;;14.90;99.90;14.60;96822.00;;;;5044495;28;20611;-73
2021/07/12 01:36:19;;;;;;;1.67;1.37;;;14.90;99.90;14.60;96835.00;;;;5106703;28;20202;-73
2021/07/12 01:39:15;;;;;;;2.30;1.10;;;14.90;99.90;14.70;96831.00;;;;5106093;28;20226;-73
2021/07/12 01:42:08;;;;;;;1.77;1.67;;;15.00;99.90;14.70;96822.00;;;;5103222;28;20222;-73
2021/07/12 01:45:05;;;;;;;1.63;1.53;;;15.00;99.90;14.70;96826.00;;;;5086079;28;20627;-73
2021/07/12 01:48:10;;;;;;;2.20;1.63;;;15.00;99.90;14.60;96819.00;;;;5086422;28;20203;-73
2021/07/12 01:51:05;;;;;;;1.10;1.00;;;15.00;99.90;14.60;96812.00;;;;5098897;28;20209;-73
2021/07/12 01:54:05;;;;;;;2.70;1.50;;;15.20;99.90;14.60;96804.00;;;;5106184;28;20464;-73
2021/07/12 01:56:58;;;;;;;2.83;1.37;;;15.00;99.90;14.60;96804.00;;;;5106668;28;20202;-73
2021/07/12 01:59:56;;;;;;;1.67;1.57;;;15.00;99.90;14.60;96799.00;;;;5105795;28;20591;-73
2021/07/12 02:02:46;;;;;;;1.37;1.27;;;15.00;99.90;14.60;96808.00;;;;5105743;28;20690;-73
2021/07/12 02:05:38;;;;;;;1.60;1.50;;;15.00;99.90;14.50;96810.00;;;;5104412;28;20194;-73
2021/07/12 02:08:30;;;;;;;2.07;1.87;;;15.00;99.90;14.60;96797.00;;;;5104206;28;20210;-73
2021/07/12 02:11:20;;;;;;;1.67;1.57;;;14.90;99.90;14.60;96805.00;;;;5101265;28;20701;-72
2021/07/12 02:14:10;;;;;;;1.70;1.57;;;14.90;99.90;14.40;96790.00;;;;5104326;28;20202;-73
2021/07/12 02:17:02;;;;;;;3.30;1.60;;;14.90;99.90;14.40;96790.00;;;;5105317;28;20580;-73
2021/07/12 02:19:52;;;;;;;2.07;1.73;;;14.90;99.90;14.40;96787.00;;;;5105054;28;20233;-73
2021/07/12 02:22:42;;;;;;;2.00;1.80;;;14.80;99.90;14.40;96797.00;;;;5105470;28;20583;-73
2021/07/12 02:25:34;;;;;;;4.57;1.57;;;14.80;99.90;14.40;96793.00;;;;5105050;28;20201;-73
2021/07/12 02:28:24;;;;;;;2.30;2.20;;;14.80;99.90;14.30;96791.00;;;;5105556;28;20574;-73
2021/07/12 02:31:16;;;;;;;2.10;1.57;;;14.70;99.90;14.30;96783.00;;;;5101644;28;20212;-73
2021/07/12 02:34:06;;;;;;;2.23;1.90;;;14.70;99.90;14.30;96787.00;;;;5105833;28;20205;-73
2021/07/12 02:36:58;;;;;;;4.63;1.40;;;14.70;99.90;14.20;96798.00;;;;5103694;28;20214;-72
2021/07/12 02:39:47;;;;;;;2.87;2.20;;;14.70;99.90;14.10;96786.00;;;;5106287;28;20601;-73
2021/07/12 02:42:44;;;;;;;3.03;1.53;;;14.60;99.90;14.20;96793.00;;;;5099234;28;20210;-73
2021/07/12 02:45:34;;;;;;;1.50;1.40;;;14.60;99.90;14.10;96796.00;;;;5112251;28;20190;-73
2021/07/12 02:48:23;;;;;;;3.37;1.70;;;14.60;99.90;13.90;96794.00;;;;5111819;28;20208;-73
2021/07/12 02:51:16;;;;;;;3.40;1.93;;;14.50;99.90;14.00;96792.00;;;;5111474;28;20206;-73
2021/07/12 02:54:07;;;;;;;7.30;1.80;;;14.40;99.90;14.00;96793.00;;;;5112513;28;20198;-72
2021/07/12 02:56:56;;;;;;;3.13;1.93;;;14.40;99.90;14.00;96788.00;;;;5112549;28;20201;-73
2021/07/12 02:59:46;;;;;;;3.87;1.57;;;14.40;99.90;13.90;96793.00;;;;5111336;28;20641;-73
2021/07/12 03:02:35;;;;;;;2.03;1.70;;;14.40;99.90;13.90;96783.00;;;;5111258;28;20719;-73
2021/07/12 03:05:24;;;;;;;1.60;1.50;;;14.40;99.90;13.80;96791.00;;;;5108578;28;20593;-73
2021/07/12 03:08:19;;;;;;;2.07;1.57;;;14.30;99.90;13.80;96784.00;;;;5110486;28;20198;-73
2021/07/12 03:11:14;;;;;;;2.10;1.90;;;14.30;99.90;13.80;96784.00;;;;5109380;28;20209;-73
2021/07/12 03:14:14;;;;;;;7.13;2.13;;;14.20;99.90;13.70;96782.00;;;;5112020;28;20205;-73
2021/07/12 03:17:08;;;;;;;5.10;2.50;;;14.20;99.90;13.60;96777.00;;;;5111149;28;20213;-73
2021/07/12 03:19:59;;;;;;;1.80;1.70;;;14.20;99.90;13.40;96780.00;;;;5110932;28;20230;-73
2021/07/12 03:22:54;;;;;;;3.90;1.90;;;14.10;99.90;13.10;96782.00;;;;5111182;28;20697;-73
2021/07/12 03:25:49;;;;;;;1.70;1.60;;;14.00;99.90;13.10;96773.00;;;;5110902;28;20201;-73
2021/07/12 03:28:39;;;;;;;2.43;2.23;;;13.90;99.90;13.20;96783.00;;;;5111362;28;20204;-73
2021/07/12 03:31:29;;;;;;;3.43;2.13;;;13.80;99.90;13.30;96773.00;;;;5108208;28;20745;-73
2021/07/12 03:34:22;;;;;;;3.53;2.20;;;13.80;99.90;13.30;96778.00;;;;5112806;28;20576;-73
2021/07/12 03:37:11;;;;;;;5.83;2.47;;;13.80;99.90;13.30;96772.00;;;;5111244;28;20202;-72
2021/07/12 03:40:00;;;;;;;2.60;2.40;;;13.80;99.90;13.40;96770.00;;;;5111438;28;20218;-73
2021/07/12 03:42:49;;;;;;;4.63;2.50;;;13.80;99.90;13.50;96776.00;;;;5111659;28;20237;-73
2021/07/12 03:45:39;;;;;;;3.57;3.20;;;13.80;99.90;13.60;96768.00;;;;5111630;28;20205;-72
2021/07/12 03:48:39;;;;;;;5.27;4.13;;;13.90;99.90;13.70;96764.00;;;;5111405;28;20198;-72
2021/07/12 03:51:30;;;;;;;4.20;3.70;;;13.90;99.90;13.80;96771.00;;;;5110849;28;20198;-73
2021/07/12 03:54:19;;;;;;;5.37;3.07;;;14.00;99.90;13.80;96760.00;;;;5109268;28;20197;-72
2021/07/12 03:57:08;;;;;;;2.73;2.53;;;14.10;99.90;13.60;96764.00;;;;5108863;28;20202;-73
2021/07/12 03:59:57;;;;;;;6.00;2.27;;;14.10;99.90;13.60;96759.00;;;;5107826;28;20239;-72
2021/07/12 04:02:47;;;;;;;3.00;2.70;;;14.00;99.90;13.80;96760.00;;;;5108059;28;20222;-72
2021/07/12 04:05:36;;;;;;;4.47;2.60;;;14.10;99.90;13.70;96757.00;;;;5107864;28;20230;-72
2021/07/12 04:08:27;;;;;;;5.83;3.40;;;14.10;99.90;13.80;96759.00;;;;5108154;28;20203;-72
2021/07/12 04:11:18;;;;;;;3.03;2.80;;;14.10;99.90;13.90;96753.00;;;;5106726;28;20205;-72
2021/07/12 04:14:07;;;;;;;2.80;2.60;;;14.20;99.90;13.80;96750.00;;;;5107231;28;20217;-72
2021/07/12 04:16:56;;;;;;;3.20;2.90;;;14.20;99.90;13.80;96749.00;;;;5108248;28;20203;-72
2021/07/12 04:19:45;;;;;;;4.67;2.90;;;14.20;99.90;13.80;96752.00;;;;5108024;28;20226;-72
2021/07/12 04:22:34;;;;;;;4.23;2.83;;;14.20;99.90;13.80;96757.00;;;;5107812;28;20219;-73
2021/07/12 04:25:25;;;;;;;5.83;3.40;;;14.20;99.90;13.80;96754.00;;;;5107359;28;20202;-73
2021/07/12 04:28:13;;;;;;;2.73;2.53;;;14.20;99.90;13.90;96760.00;;;;5107880;28;20661;-72
2021/07/12 04:31:02;;;;;;;2.90;2.53;;;14.20;99.90;13.90;96758.00;;;;5106765;28;20194;-72
2021/07/12 04:33:51;;;;;;;3.27;2.97;;;14.20;99.90;13.70;96760.00;;;;5106956;28;20194;-73
2021/07/12 04:36:40;;;;;;;3.87;3.20;;;14.30;99.90;13.80;96759.00;;;;5108387;28;20191;-74
2021/07/12 04:39:29;;;;;;;3.93;3.20;;;14.20;99.90;13.90;96754.00;;;;5107805;28;20205;-73
2021/07/12 04:42:19;;;;;;;3.07;2.77;;;14.30;99.90;14.10;96754.00;;;;5107458;28;20692;-73
2021/07/12 04:45:09;;;;;;;5.20;3.70;;;14.40;99.90;14.10;96755.00;;;;5107523;28;20580;-72
2021/07/12 04:47:58;;;;;;;5.57;4.53;;;14.40;99.90;14.20;96759.00;;;;5106294;28;20657;-74
2021/07/12 04:50:49;;;;;;;3.63;3.13;;;14.50;99.90;14.20;96750.00;;;;5106047;28;20677;-75
2021/07/12 04:53:38;;;;;;;4.43;4.00;;;14.60;99.90;14.40;96753.00;;;;5107049;28;20198;-73
2021/07/12 04:56:27;;;;;;;4.93;3.63;;;14.60;99.90;14.40;96755.00;;;;5105925;28;20217;-74
2021/07/12 04:59:24;;;;;;;4.83;3.37;;;14.70;99.90;14.40;96763.00;;;;5107782;28;20199;-74
2021/07/12 05:02:13;;;;;;;4.17;3.77;;;14.70;99.90;14.50;96771.00;;;;5106420;28;20226;-73
2021/07/12 05:05:03;;;;;;;5.63;3.70;;;14.80;99.90;14.70;96769.00;;;;5105234;28;20206;-75
2021/07/12 05:07:52;;;;;;;5.13;3.80;;;14.90;99.90;14.80;96767.00;;;;5100841;28;20198;-70
2021/07/12 05:10:42;;;;;;;4.50;3.43;;;15.00;99.90;14.80;96778.00;;;;5104954;28;20566;-74
2021/07/12 05:13:31;;;;;;;3.80;3.50;;;15.10;99.90;14.90;96772.00;;;;5107600;28;20225;-76
2021/07/12 05:16:24;;;;;;;4.67;3.73;;;15.20;99.90;15.10;96766.00;;;;5105830;28;20207;-75
2021/07/12 05:19:14;;;;;;;5.50;4.23;;;15.30;99.90;15.10;96770.00;;;;5095027;28;20293;-75
2021/07/12 05:22:06;;;;;;;3.43;3.17;;;15.40;99.90;15.30;96763.00;;;;5106375;28;20238;-73
2021/07/12 05:24:55;;;;;;;5.33;3.87;;;15.50;99.90;15.70;96762.00;;;;5107337;28;20210;-71
2021/07/12 05:27:43;;;;;;;3.03;2.77;;;15.70;99.90;15.80;96766.00;;;;5105776;28;20197;-72
2021/07/12 05:30:33;;;;;;;4.53;3.43;;;15.80;99.90;16.10;96766.00;;;;5104961;28;20202;-73
2021/07/12 05:33:23;;;;;;;5.47;3.77;;;16.00;99.90;16.20;96775.00;;;;5107011;28;20259;-72
2021/07/12 05:36:12;;;;;;;4.53;3.47;;;16.20;99.90;16.20;96777.00;;;;5104757;28;21049;-72
2021/07/12 05:39:01;;;;;;;3.47;3.17;;;16.30;99.90;16.20;96768.00;;;;5106354;28;20199;-72
2021/07/12 05:41:50;;;;;;;3.40;3.20;;;16.40;99.90;16.30;96779.00;;;;5105161;28;20233;-73
2021/07/12 05:44:39;;;;;;;4.13;3.77;;;16.50;99.90;16.40;96774.00;;;;5105823;28;20206;-72
2021/07/12 05:47:28;;;;;;;3.70;3.40;;;16.50;99.90;16.50;96779.00;;;;5111667;27;20202;-72
2021/07/12 05:50:18;;;;;;;3.63;3.33;;;16.60;99.90;16.60;96769.00;;;;5094664;28;20582;-73
2021/07/12 05:53:07;;;;;;;3.53;3.23;;;16.70;99.90;16.60;96764.00;;;;5106418;28;20219;-73
2021/07/12 05:55:56;;;;;;;3.70;3.40;;;16.80;99.90;17.00;96766.00;;;;5104566;28;20570;-73
2021/07/12 05:58:45;;;;;;;5.60;3.33;;;16.90;99.90;17.20;96782.00;;;;5105987;28;20661;-73
2021/07/12 06:01:34;;;;;;;4.13;3.00;;;17.10;99.90;17.10;96774.00;;;;5105092;28;20228;-73
2021/07/12 06:04:22;;;;;;;2.80;2.47;;;17.20;99.90;17.10;96783.00;;;;5096764;28;20203;-73
2021/07/12 06:07:13;;;;;;;4.13;2.90;;;17.30;99.90;17.40;96780.00;;;;5102794;28;20191;-73
2021/07/12 06:10:02;;;;;;;4.30;3.10;;;17.40;99.90;17.30;96786.00;;;;5104715;28;20296;-73
2021/07/12 06:12:51;;;;;;;3.03;2.77;;;17.40;99.90;17.40;96785.00;;;;5106339;28;20323;-73
2021/07/12 06:15:40;;;;;;;3.63;3.33;;;17.50;99.90;17.60;96793.00;;;;5107412;28;20228;-71
2021/07/12 06:18:29;;;;;;;4.57;3.13;;;17.60;99.90;17.70;96786.00;;;;5105724;28;20202;-71
2021/07/12 06:21:18;;;;;;;5.13;3.03;;;17.70;99.90;17.60;96785.00;;;;5104974;28;20231;-73
2021/07/12 06:24:09;;;;;;;3.10;2.80;;;17.70;99.90;17.60;96793.00;;;;5106001;28;20201;-73
2021/07/12 06:26:59;;;;;;;2.87;2.60;;;17.80;99.90;17.80;96791.00;;;;5105050;28;20263;-73
2021/07/12 06:29:47;;;;;;;3.67;2.70;;;17.80;99.90;17.80;96792.00;;;;5106005;28;20207;-73
2021/07/12 06:32:37;;;;;;;4.50;3.50;;;17.90;99.90;18.00;96782.00;;;;5105787;28;20224;-73
2021/07/12 06:35:26;;;;;;;3.37;2.83;;;18.00;99.90;18.10;96792.00;;;;5105695;28;20205;-73
2021/07/12 06:38:15;;;;;;;3.40;3.10;;;18.10;99.90;18.10;96801.00;;;;5106430;28;20255;-72
2021/07/12 06:41:06;;;;;;;2.93;2.63;;;18.10;99.90;18.10;96805.00;;;;5105601;28;20222;-73
2021/07/12 06:43:56;;;;;;;3.07;2.80;;;18.20;99.90;18.10;96812.00;;;;5105961;28;20209;-73
2021/07/12 06:46:45;;;;;;;4.30;3.17;;;18.30;99.90;18.00;96808.00;;;;5105650;28;20199;-73
2021/07/12 06:49:34;;;;;;;3.40;3.10;;;18.20;99.90;18.10;96809.00;;;;5105925;28;20259;-73
2021/07/12 06:52:23;;;;;;;6.40;3.07;;;18.20;99.90;18.20;96805.00;;;;5104971;28;20250;-72
2021/07/12 06:55:13;;;;;;;5.03;3.03;;;18.30;99.90;18.30;96807.00;;;;5105156;28;20600;-73
2021/07/12 06:58:04;;;;;;;2.67;2.47;;;18.30;99.90;18.30;96804.00;;;;5105026;28;20209;-72
2021/07/12 07:00:53;;;;;;;3.70;3.40;;;18.40;99.90;18.50;96799.00;;;;5105686;28;20226;-73
2021/07/12 07:03:42;;;;;;;3.80;3.30;;;18.50;99.90;18.50;96811.00;;;;5103013;28;20211;-72
2021/07/12 07:06:31;;;;;;;2.70;2.50;;;18.50;99.90;18.50;96800.00;;;;5097609;28;20289;-72
2021/07/12 07:09:20;;;;;;;5.60;4.37;;;18.60;99.90;18.60;96795.00;;;;5106702;28;20719;-73
2021/07/12 07:12:09;;;;;;;3.37;3.07;;;18.60;99.90;18.60;96803.00;;;;5105249;28;20234;-73
2021/07/12 07:15:00;;;;;;;3.47;3.10;;;18.70;99.90;18.60;96809.00;;;;5104933;28;20217;-73
2021/07/12 07:17:49;;;;;;;2.57;2.37;;;18.70;99.90;18.60;96810.00;;;;5105685;28;20228;-73
2021/07/12 07:20:38;;;;;;;2.50;2.30;;;18.70;99.90;18.60;96806.00;;;;5104732;28;20216;-73
2021/07/12 07:23:27;;;;;;;3.10;2.83;;;18.70;99.90;18.70;96803.00;;;;5105971;28;20218;-73
2021/07/12 07:26:16;;;;;;;3.63;3.23;;;18.80;99.90;18.70;96807.00;;;;5106027;28;20261;-73
2021/07/12 07:29:04;;;;;;;3.67;3.37;;;18.80;99.90;18.70;96805.00;;;;5106373;28;20199;-73
2021/07/12 07:31:55;;;;;;;2.77;2.50;;;18.80;99.90;18.70;96803.00;;;;5107961;28;20225;-73
2021/07/12 07:34:55;;;;;;;3.27;2.97;;;18.80;99.90;18.70;96804.00;;;;5109154;28;20269;-74
2021/07/12 07:37:46;;;;;;;4.73;4.33;;;18.80;99.90;18.50;96798.00;;;;5109423;28;20202;-74
2021/07/12 07:40:35;;;;;;;3.07;2.87;;;18.80;99.90;18.50;96802.00;;;;5108865;28;20191;-74
2021/07/12 07:43:24;;;;;;;5.00;3.30;;;18.70;99.90;18.60;96788.00;;;;5109625;28;20253;-74
2021/07/12 07:46:13;;;;;;;3.43;3.13;;;18.70;99.90;18.70;96782.00;;;;5109448;28;20665;-73
2021/07/12 07:49:07;;;;;;;3.97;3.23;;;18.80;99.90;18.80;96792.00;;;;5109340;28;20300;-73
2021/07/12 07:51:56;;;;;;;3.97;3.53;;;18.80;99.90;18.80;96778.00;;;;5108227;28;20227;-74
2021/07/12 07:54:44;;;;;;;4.67;3.40;;;18.90;99.90;18.90;96774.00;;;;5096761;28;20205;-73
2021/07/12 07:57:33;;;;;;;3.60;3.23;;;18.90;99.90;19.00;96773.00;;;;5108909;28;20194;-73
2021/07/12 08:00:23;;;;;;;3.30;3.00;;;19.00;99.90;19.10;96761.00;;;;5108831;28;20206;-73
2021/07/12 08:03:11;;;;;;;3.40;3.10;;;19.10;99.90;19.20;96773.00;;;;5109082;28;20233;-73
2021/07/12 08:06:02;;;;;;;3.20;2.90;;;19.20;99.90;19.20;96767.00;;;;5095759;28;20202;-72
2021/07/12 08:08:50;;;;;;;3.57;3.27;;;19.20;99.90;19.10;96763.00;;;;5108834;28;20580;-72
2021/07/12 08:11:40;;;;;;;4.40;3.57;;;19.20;99.90;19.20;96765.00;;;;5108511;28;20596;-72
2021/07/12 08:14:29;;;;;;;5.10;3.50;;;19.30;99.90;19.00;96766.00;;;;5107673;28;20252;-72
2021/07/12 08:17:18;;;;;;;3.50;3.00;;;19.20;99.90;19.10;96768.00;;;;5108533;28;20207;-72
2021/07/12 08:20:10;;;;;;;4.67;3.37;;;19.30;99.90;19.20;96772.00;;;;5108609;28;20576;-72
2021/07/12 08:23:09;;;;;;;4.03;3.67;;;19.20;99.90;19.40;96769.00;;;;5108010;28;20310;-72
2021/07/12 08:25:57;;;;;;;3.37;3.07;;;19.30;99.90;19.30;96765.00;;;;5107276;28;20198;-71
2021/07/12 08:28:46;;;;;;;3.30;3.00;;;19.40;99.90;19.50;96761.00;;;;5109028;28;20580;-71
2021/07/12 08:31:35;;;;;;;3.73;3.17;;;19.50;99.90;19.70;96751.00;;;;5107398;28;20222;-72
2021/07/12 08:34:24;;;;;;;4.00;2.90;;;19.60;99.90;19.90;96751.00;;;;5108052;28;20435;-71
2021/07/12 08:37:13;;;;;;;3.63;2.93;;;19.70;99.90;19.90;96754.00;;;;5108191;28;20206;-73
2021/07/12 08:40:06;;;;;;;4.13;2.93;;;19.80;99.90;20.00;96749.00;;;;5095628;28;20251;-74
2021/07/12 08:42:57;;;;;;;3.17;2.87;;;20.00;99.90;20.30;96748.00;;;;5107864;28;20227;-74
2021/07/12 08:45:46;;;;;;;3.70;3.40;;;20.20;99.90;20.60;96744.00;;;;5107805;28;20206;-73
2021/07/12 08:48:35;;;;;;;5.10;3.33;;;20.40;99.90;20.80;96750.00;;;;5107152;28;20202;-73
2021/07/12 08:51:24;;;;;;;3.00;2.80;;;20.60;99.90;20.90;96722.00;;;;5107013;28;20202;-73
2021/07/12 08:54:13;;;;;;;3.57;3.20;;;20.80;99.90;21.40;96732.00;;;;5107460;28;20268;-73
2021/07/12 08:57:04;;;;;;;3.70;3.33;;;21.10;99.90;21.90;96730.00;;;;5108720;28;20210;-73
2021/07/12 08:59:56;;;;;;;3.40;3.10;;;21.40;99.90;22.30;96723.00;;;;5107172;28;20201;-73
2021/07/12 09:02:45;;;;;;;3.13;2.80;;;21.60;99.90;22.70;96728.00;;;;5107591;28;20230;-73
2021/07/12 09:05:57;;;;;;;5.03;2.70;;;22.00;99.90;23.10;96722.00;;;;5094608;28;20573;-74
2021/07/12 09:08:53;;;;;;;3.37;3.07;;;22.30;99.90;23.30;96721.00;;;;5108275;28;20210;-73
2021/07/12 09:11:43;;;;;;;3.73;3.33;;;22.70;99.90;23.60;96717.00;;;;5107554;28;20229;-73
2021/07/12 09:14:34;;;;;;;2.77;2.57;;;23.00;99.90;23.30;96709.00;;;;5108063;28;20203;-73
2021/07/12 09:17:32;;;;;;;3.80;2.73;;;23.20;99.90;23.50;96701.00;;;;5107974;28;20210;-73
2021/07/12 09:20:26;;;;;;;6.97;3.63;;;23.30;99.90;24.20;96699.00;;;;5107520;28;20215;-74
2021/07/12 09:23:22;;;;;;;3.60;3.30;;;23.60;99.90;24.70;96696.00;;;;5107400;28;20255;-73
2021/07/12 09:26:11;;;;;;;3.70;3.40;;;24.00;99.90;25.30;96690.00;;;;5108252;28;20199;-73
2021/07/12 09:29:00;;;;;;;4.27;3.87;;;24.40;99.90;25.80;96715.00;;;;5107146;28;20203;-73
2021/07/12 09:31:51;;;;;;;5.60;3.87;;;24.80;99.90;25.00;96675.00;;;;5106760;28;20227;-74
2021/07/12 09:34:41;;;;;;;7.27;3.67;;;24.90;99.90;25.80;96689.00;;;;5105307;28;20203;-74
2021/07/12 09:37:31;;;;;;;4.70;4.30;;;25.20;99.90;25.70;96682.00;;;;5105514;28;20208;-73
2021/07/12 09:40:20;;;;;;;6.10;3.87;;;25.40;99.90;26.70;96671.00;;;;5104489;28;20593;-73
2021/07/12 09:43:09;;;;;;;6.73;5.20;;;25.70;99.90;25.20;96699.00;;;;5105486;28;20245;-74
2021/07/12 09:45:57;;;;;;;5.40;4.90;;;25.70;99.90;25.70;96656.00;;;;5105371;28;20203;-74
2021/07/12 09:49:08;;;;;;;6.60;5.40;;;25.60;99.90;25.20;96650.00;;;;5105581;28;20229;-75
2021/07/12 09:51:59;;;;;;;7.40;5.00;;;25.80;99.90;25.40;96649.00;;;;5104303;28;20214;-74
2021/07/12 09:54:49;;;;;;;6.63;5.17;;;25.80;99.90;24.90;96678.00;;;;5094753;28;20205;-73
2021/07/12 09:57:39;;;;;;;5.30;4.80;;;25.90;99.90;24.00;96651.00;;;;5105739;28;20201;-73
2021/07/12 10:00:28;;;;;;;5.10;4.70;;;25.30;99.90;24.10;96686.00;;;;5103855;28;20206;-74
2021/07/12 10:03:19;;;;;;;5.23;4.73;;;24.90;99.90;23.20;96677.00;;;;5105048;28;20233;-74
2021/07/12 10:06:11;;;;;;;5.93;4.70;;;24.50;99.90;22.60;96677.00;;;;5094051;28;20204;-73
2021/07/12 10:09:00;;;;;;;5.77;4.13;;;23.90;99.90;23.40;96680.00;;;;5105219;28;20203;-75
2021/07/12 10:11:51;;;;;;;5.43;4.47;;;23.70;99.90;24.60;96649.00;;;;5104805;28;20226;-74
2021/07/12 10:14:40;;;;;;;5.63;5.13;;;23.90;99.90;25.50;96646.00;;;;5106114;28;20213;-74
2021/07/12 10:17:29;;;;;;;7.47;4.97;;;24.40;99.90;25.60;96662.00;;;;5105919;28;20231;-74
2021/07/12 10:20:18;;;;;;;5.13;4.67;;;24.70;99.90;25.00;96630.00;;;;5104269;28;20212;-73
2021/07/12 10:23:10;;;;;;;6.30;4.87;;;24.90;99.90;25.40;96634.00;;;;5100178;28;20231;-74
2021/07/12 10:25:58;;;;;;;4.73;4.27;;;25.10;99.90;24.60;96656.00;;;;5104498;28;20580;-74
2021/07/12 10:29:11;;;;;;;5.33;4.53;;;25.00;99.90;24.00;96649.00;;;;5104849;28;20568;-73
2021/07/12 10:32:08;;;;;;;6.50;4.57;;;24.80;99.90;24.70;96619.00;;;;5103784;28;20221;-73
2021/07/12 10:34:59;;;;;;;6.87;4.67;;;24.80;99.90;26.40;96637.00;;;;5102830;28;20199;-74
2021/07/12 10:38:00;;;;;;;5.60;4.97;;;25.20;99.90;25.30;96649.00;;;;5103304;28;20200;-74
2021/07/12 10:40:55;;;;;;;5.90;5.17;;;25.40;99.90;25.50;96630.00;;;;5090194;28;20201;-74
2021/07/12 10:43:48;;;;;;;12.10;4.50;;;25.50;99.90;25.80;96636.00;;;;5104704;28;20222;-73
2021/07/12 10:46:40;;;;;;;7.23;5.97;;;25.60;99.90;26.20;96623.00;;;;5102199;28;20207;-73
2021/07/12 10:49:41;;;;;;;6.67;4.40;;;25.80;99.90;25.20;96630.00;;;;5104051;28;20285;-72
2021/07/12 10:52:44;;;;;;;10.27;5.90;;;25.80;99.90;24.80;96620.00;;;;5104024;28;20224;-72
2021/07/12 10:55:36;;;;;;;9.90;5.70;;;25.60;99.60;24.30;96624.00;;;;5105625;28;20207;-73
2021/07/12 10:58:52;;;;;;;7.13;5.17;;;25.20;99.90;25.60;96616.00;;;;5105233;28;20426;-74
2021/07/12 11:01:43;;;;;;;6.50;4.60;;;25.20;99.90;25.90;96629.00;;;;5104744;28;20596;-69
2021/07/12 11:04:47;;;;;;;8.40;4.87;;;25.40;99.90;25.70;96592.00;;;;5086841;28;20233;-69
2021/07/12 11:07:42;;;;;;;5.90;4.97;;;25.50;99.90;28.00;96620.00;;;;5097617;28;20216;-71
2021/07/12 11:10:33;;;;;;;8.80;5.70;;;26.20;99.90;27.80;96561.00;;;;5107992;28;20206;-70
2021/07/12 11:13:22;;;;;;;7.97;5.10;;;26.80;97.10;27.30;96558.00;;;;5109449;28;20299;-70
2021/07/12 11:16:17;;;;;;;5.97;4.43;;;27.10;96.40;28.30;96560.00;;;;5108240;28;20268;-71
2021/07/12 11:19:25;;;;;;;9.03;4.93;;;27.40;97.30;28.10;96621.00;;;;5108090;28;20664;-71
2021/07/12 11:22:24;;;;;;;8.47;5.37;;;27.70;95.90;27.40;96619.00;;;;5108481;28;20225;-71
2021/07/12 11:25:13;;;;;;;9.37;5.27;;;27.50;94.40;27.40;96616.00;;;;5107163;28;20246;-73
2021/07/12 11:28:10;;;;;;;7.63;5.93;;;27.40;95.00;27.00;96614.00;;;;5105024;28;20223;-74
2021/07/12 11:30:59;;;;;;;6.97;4.70;;;27.30;93.60;26.90;96613.00;;;;5105458;28;20216;-74
2021/07/12 11:33:51;;;;;;;7.13;5.07;;;27.10;94.40;26.30;96598.00;;;;5106711;28;20204;-74
2021/07/12 11:36:40;;;;;;;7.00;5.20;;;27.00;94.70;24.90;96589.00;;;;5106330;28;20261;-75
2021/07/12 11:39:32;;;;;;;7.20;5.07;;;26.40;93.50;26.40;96578.00;;;;5105920;28;20203;-74
2021/07/12 11:42:25;;;;;;;6.60;4.90;;;26.30;95.30;26.60;96573.00;;;;5108460;28;20225;-74
2021/07/12 11:45:17;;;;;;;5.70;4.93;;;26.50;96.10;25.90;96566.00;;;;5107571;28;20286;-74
2021/07/12 11:48:09;;;;;;;7.13;4.80;;;26.30;95.20;25.70;96575.00;;;;5104761;28;20207;-74
2021/07/12 11:50:59;;;;;;;6.03;5.33;;;26.20;95.50;26.00;96584.00;;;;5105631;28;20207;-73
2021/07/12 11:53:49;;;;;;;5.60;5.10;;;26.20;96.50;25.70;96571.00;;;;5107156;28;20192;-75
2021/07/12 11:56:37;;;;;;;6.13;4.97;;;26.00;97.00;26.50;96567.00;;;;5106494;28;20689;-75
2021/07/12 11:59:30;;;;;;;6.10;5.50;;;26.20;97.70;28.10;96577.00;;;;5105478;28;20208;-74
2021/07/12 12:02:19;;;;;;;5.60;5.10;;;26.80;99.40;27.90;96591.00;;;;5107228;28;20220;-75
2021/07/12 12:05:11;;;;;;;5.17;4.67;;;27.10;98.70;27.90;96593.00;;;;5093253;28;20228;-73
2021/07/12 12:08:02;;;;;;;5.20;4.77;;;27.30;97.90;27.90;96583.00;;;;5108346;28;20766;-73
2021/07/12 12:10:54;;;;;;;5.63;4.40;;;27.50;96.60;28.00;96578.00;;;;5106637;28;20212;-73
2021/07/12 12:13:43;;;;;;;6.37;4.60;;;27.60;96.30;28.70;96556.00;;;;5108200;28;20241;-74
2021/07/12 12:16:32;;;;;;;4.47;4.07;;;27.90;96.20;27.50;96579.00;;;;5106814;28;20213;-74
2021/07/12 12:19:21;;;;;;;5.80;5.20;;;28.00;92.30;27.10;96572.00;;;;5107844;28;20254;-74
2021/07/12 12:22:21;;;;;;;5.27;4.77;;;27.80;92.40;27.40;96572.00;;;;5107436;28;20223;-73
2021/07/12 12:25:12;;;;;;;7.03;5.43;;;27.70;92.30;26.20;96562.00;;;;5103442;28;20226;-74
2021/07/12 12:28:02;;;;;;;5.50;4.57;;;27.30;92.40;27.00;96563.00;;;;5103535;28;20210;-73
2021/07/12 12:30:51;;;;;;;4.83;4.43;;;27.20;93.90;27.10;96561.00;;;;5101996;28;20205;-72
2021/07/12 12:33:45;;;;;;;5.50;5.00;;;27.10;93.60;27.20;96561.00;;;;5108516;28;20233;-71
2021/07/12 12:36:36;;;;;;;5.10;4.60;;;27.10;94.00;27.00;96556.00;;;;5108011;28;20210;-72
2021/07/12 12:39:25;;;;;;;5.13;4.63;;;27.10;94.70;26.90;96558.00;;;;5108222;28;20244;-71
2021/07/12 12:42:28;;;;;;;6.03;5.30;;;27.10;94.90;27.20;96543.00;;;;5107547;28;20229;-74
2021/07/12 12:45:33;;;;;;;6.03;5.27;;;27.10;94.60;27.60;96559.00;;;;5099164;28;20221;-70